Time;durP1;ratioP1;P1;durP2;ratioP2;P2;SDS_P1;SDS_P2;PMS_P1;PMS_P2;Temp;Humidity;BMP_temperature;BMP_pressure;BME280_temperature;BME280_humidity;BME280_pressure;Samples;Min_cycle;Max_cycle;Signal;HPM_P1;HPM_P2
2021/01/13 00:01:30;;;;;;;;;;;4.50;99.90;;;3.75;61.36;102134.63;5053780;28;19925;-63
2021/01/13 00:03:57;;;;;;;;;;;4.40;99.90;;;3.73;61.61;102127.84;5035689;28;19925;-63
2021/01/13 00:06:25;;;;;;;;;;;4.30;99.90;;;3.64;61.86;102123.78;5053151;28;19925;-63
2021/01/13 00:08:52;;;;;;;;;;;4.20;99.90;;;3.48;62.20;102126.94;5052518;28;19924;-63
2021/01/13 00:11:19;;;;;;;;;;;4.10;99.90;;;3.40;62.29;102132.50;5036326;28;19932;-63
2021/01/13 00:13:46;;;;;;;;;;;4.00;99.90;;;3.37;62.52;102127.59;5053431;28;19925;-63
2021/01/13 00:16:14;;;;;;;;;;;4.00;99.90;;;3.50;62.35;102117.66;5052754;28;19925;-63
2021/01/13 00:18:41;;;;;;;;;;;4.10;99.90;;;3.71;61.54;102117.34;5053678;28;19925;-62
2021/01/13 00:21:13;;;;;;;;;;;4.20;99.90;;;3.92;60.43;102105.53;5053536;28;19933;-63
2021/01/13 00:23:42;;;;;;;;;;;4.40;99.90;;;3.74;61.33;102108.91;5053285;28;20399;-63
2021/01/13 00:26:10;;;;;;;;;;;4.30;99.90;;;3.43;62.57;102110.69;5052728;28;19975;-62
2021/01/13 00:28:37;;;;;;;;;;;4.10;99.90;;;3.25;63.64;102114.06;5051686;28;20348;-63
2021/01/13 00:31:04;;;;;;;;;;;3.90;99.90;;;3.21;63.75;102119.00;5053221;28;19932;-63
2021/01/13 00:33:32;;;;;;;;;;;3.80;99.90;;;3.18;63.95;102108.72;5068764;28;19990;-63
2021/01/13 00:35:59;;;;;;;;;;;3.80;99.90;;;3.20;64.17;102106.66;5052550;28;19925;-63
2021/01/13 00:38:26;;;;;;;;;;;3.80;99.90;;;3.18;63.92;102105.22;5053373;28;19947;-64
2021/01/13 00:40:53;;;;;;;;;;;3.80;99.90;;;3.16;63.99;102102.75;5035692;28;19932;-63
2021/01/13 00:43:21;;;;;;;;;;;3.80;99.90;;;3.15;64.02;102094.94;5053092;28;19963;-63
2021/01/13 00:45:48;;;;;;;;;;;3.80;99.90;;;3.21;63.69;102102.94;5052170;28;19929;-64
2021/01/13 00:48:15;;;;;;;;;;;3.80;99.90;;;3.28;63.45;102094.91;5035497;28;20330;-63
2021/01/13 00:50:43;;;;;;;;;;;3.80;99.90;;;3.18;63.73;102097.19;5053084;28;20368;-63
2021/01/13 00:53:10;;;;;;;;;;;3.80;99.90;;;3.07;64.47;102097.84;5068425;28;19928;-63
2021/01/13 00:55:37;;;;;;;;;;;3.70;99.90;;;3.03;64.58;102099.28;5065410;28;19954;-63
2021/01/13 00:58:04;;;;;;;;;;;3.60;99.90;;;3.09;64.49;102096.63;5053132;28;19929;-63
2021/01/13 01:00:31;;;;;;;;;;;3.70;99.90;;;3.13;64.41;102089.78;5052049;28;20055;-63
2021/01/13 01:02:58;;;;;;;;;;;3.60;99.90;;;2.91;65.05;102093.78;5053080;28;19959;-63
2021/01/13 01:05:25;;;;;;;;;;;3.60;99.90;;;2.87;65.34;102094.38;5052160;28;19929;-63
2021/01/13 01:07:53;;;;;;;;;;;3.50;99.90;;;3.02;64.46;102097.63;5052759;28;19932;-64
2021/01/13 01:10:24;;;;;;;;;;;3.60;99.90;;;3.27;63.50;102099.44;5034626;28;19974;-63
2021/01/13 01:12:51;;;;;;;;;;;3.80;99.90;;;3.52;62.55;102098.72;5052890;28;19932;-63
2021/01/13 01:15:18;;;;;;;;;;;4.00;99.90;;;3.61;62.24;102098.28;5067314;28;19932;-63
2021/01/13 01:17:45;;;;;;;;;;;4.10;99.90;;;3.65;61.80;102087.97;5052767;28;19940;-62
2021/01/13 01:20:14;;;;;;;;;;;4.20;99.90;;;3.45;62.37;102095.25;5052621;28;19925;-64
2021/01/13 01:22:55;;;;;;;;;;;4.10;99.90;;;3.20;63.24;102095.13;5051494;28;19925;-63
2021/01/13 01:25:23;;;;;;;;;;;3.90;99.90;;;2.96;63.98;102088.63;5052024;28;20425;-63
2021/01/13 01:27:50;;;;;;;;;;;3.60;99.90;;;2.80;65.25;102089.03;5052585;28;20469;-63
2021/01/13 01:30:19;;;;;;;;;;;;;;;2.60;65.84;102085.56;5034762;28;19982;-63
2021/01/13 09:46:36;;;;;;;;;;;9.50;99.90;;;9.33;48.26;102198.69;5051723;28;20086;-65
2021/01/13 09:49:05;;;;;;;;;;;9.80;99.90;;;9.54;47.66;102202.47;4992003;28;2106067;-63
2021/01/13 09:51:33;;;;;;;;;;;10.00;99.90;;;9.59;46.18;102203.34;5073391;28;20345;-62
2021/01/13 09:54:02;;;;;;;;;;;10.10;99.90;;;9.65;45.29;102202.34;5073088;28;19935;-63
2021/01/13 09:56:30;;;;;;;;;;;10.10;99.90;;;9.72;46.02;102208.41;5072443;28;19925;-63
2021/01/13 09:59:00;;;;;;;;;;;10.20;99.90;;;9.91;45.27;102211.59;5073228;28;19978;-63
2021/01/13 10:01:30;;;;;;;;;;;10.40;99.90;;;9.98;45.65;102209.53;5072946;28;20046;-63
2021/01/13 10:03:59;;;;;;;;;;;10.50;99.90;;;10.16;46.50;102221.91;5072734;28;20027;-63
2021/01/13 10:06:28;;;;;;;;;;;10.60;99.90;;;10.26;45.21;102217.47;5072406;28;19977;-62
2021/01/13 10:08:57;;;;;;;;;;;10.80;99.90;;;10.30;45.24;102220.47;5073058;28;20306;-64
2021/01/13 10:11:26;;;;;;;;;;;10.80;99.90;;;10.39;45.16;102214.38;5073066;28;19947;-63
2021/01/13 10:13:58;;;;;;;;;;;10.90;99.90;;;10.43;44.78;102218.19;5072717;28;19931;-63
2021/01/13 10:16:26;;;;;;;;;;;11.00;99.90;;;10.47;44.10;102221.19;5072140;28;19950;-63
2021/01/13 10:18:55;;;;;;;;;;;11.00;99.90;;;10.57;46.58;102226.72;5072715;28;20342;-63
2021/01/13 10:21:24;;;;;;;;;;;11.10;99.90;;;10.72;44.60;102226.88;5072755;28;19924;-63
2021/01/13 10:23:52;;;;;;;;;;;11.20;99.90;;;10.88;45.99;102238.66;5072307;28;19924;-63
2021/01/13 10:26:20;;;;;;;;;;;11.30;99.90;;;10.81;41.99;102235.31;5071866;28;19924;-62
2021/01/13 10:28:47;;;;;;;;;;;11.30;99.90;;;10.73;42.10;102239.28;5072605;28;20007;-63
2021/01/13 10:31:25;;;;;;;;;;;11.30;99.90;;;10.75;42.47;102234.47;5072482;28;19924;-63
2021/01/13 10:33:53;;;;;;;;;;;11.30;99.90;;;10.85;43.70;102239.94;5072116;28;20367;-62
2021/01/13 10:36:45;;;;;;;;;;;11.30;99.90;;;10.82;42.30;102242.38;5071743;28;20396;-63
2021/01/13 10:39:22;;;;;;;;;;;11.30;99.90;;;10.89;42.37;102241.06;5072570;28;19954;-65
2021/01/13 10:41:50;;;;;;;;;;;11.40;99.90;;;11.03;44.47;102246.06;5072059;28;19925;-65
2021/01/13 10:44:18;;;;;;;;;;;11.50;99.90;;;11.25;43.64;102244.88;5072065;28;19943;-65
2021/01/13 10:46:51;;;;;;;;;;;11.60;99.90;;;11.41;41.79;102246.63;5071782;28;20322;-62
2021/01/13 10:49:32;;;;;;;;;;;11.80;99.90;;;11.38;42.76;102247.16;5072263;28;20371;-62
2021/01/13 10:52:03;;;;;;;;;;;11.80;99.90;;;11.54;43.11;102253.50;5072472;28;19928;-63
2021/01/13 10:54:31;;;;;;;;;;;11.90;99.90;;;11.61;43.73;102248.66;5071903;28;19928;-63
2021/01/13 10:57:01;;;;;;;;;;;12.00;99.90;;;11.61;40.31;102239.72;5071759;28;20338;-63
2021/01/13 10:59:29;;;;;;;;;;;11.90;99.90;;;11.62;42.76;102235.91;5072297;28;19931;-63
2021/01/13 11:02:00;;;;;;;;;;;12.00;99.90;;;11.66;42.92;102234.31;5072184;28;19935;-63
2021/01/13 11:04:33;;;;;;;;;;;12.00;99.90;;;11.76;42.85;102237.97;5071614;28;20383;-63
2021/01/13 11:07:11;;;;;;;;;;;12.10;99.90;;;11.61;41.60;102228.88;5071692;28;19924;-63
2021/01/13 11:09:41;;;;;;;;;;;12.10;99.90;;;11.50;41.24;102231.53;5072030;28;19925;-62
2021/01/13 11:12:09;;;;;;;;;;;12.00;99.90;;;11.60;41.51;102229.97;5072248;28;19961;-65
2021/01/13 11:14:38;;;;;;;;;;;12.10;99.90;;;11.68;40.87;102227.56;5071501;28;19935;-63
2021/01/13 11:17:09;;;;;;;;;;;12.10;99.90;;;11.55;40.28;102222.59;5071629;28;19935;-63
2021/01/13 11:19:37;;;;;;;;;;;12.00;99.90;;;11.53;40.93;102224.75;5072088;28;19990;-62
2021/01/13 11:22:05;;;;;;;;;;;12.00;99.90;;;11.54;40.95;102215.56;5071977;28;20379;-62
2021/01/13 11:24:38;;;;;;;;;;;12.10;99.90;;;11.75;41.00;102220.06;5071333;28;19925;-63
2021/01/13 11:27:07;;;;;;;;;;;12.20;99.90;;;11.80;42.64;102217.34;5071563;28;19924;-63
2021/01/13 11:29:36;;;;;;;;;;;12.30;99.90;;;11.79;41.77;102210.31;5071894;28;19978;-62
2021/01/13 11:32:05;;;;;;;;;;;12.30;99.90;;;11.88;40.72;102224.19;5071810;28;19975;-62
2021/01/13 11:34:32;;;;;;;;;;;12.40;99.90;;;11.98;43.55;102214.19;5070897;28;19925;-63
2021/01/13 11:37:24;;;;;;;;;;;12.40;99.90;;;12.22;41.42;102213.75;5071476;28;19924;-63
2021/01/13 11:40:05;;;;;;;;;;;12.60;99.90;;;12.41;38.64;102215.69;5071890;28;19947;-62
2021/01/13 11:43:07;;;;;;;;;;;12.70;99.90;;;12.45;40.92;102200.50;5071866;28;19931;-65
2021/01/13 11:45:38;;;;;;;;;;;12.80;99.90;;;12.44;39.37;102200.75;5074134;28;20372;-62
2021/01/13 11:48:08;;;;;;;;;;;12.80;99.90;;;12.42;40.57;102198.31;5075339;28;20380;-62
2021/01/13 11:50:36;;;;;;;;;;;12.80;99.90;;;12.51;39.37;102198.59;5075371;28;19929;-63
2021/01/13 11:53:06;;;;;;;;;;;12.90;99.90;;;12.50;41.14;102191.53;5075730;28;19930;-65
2021/01/13 11:55:34;;;;;;;;;;;12.90;99.90;;;12.52;39.81;102189.41;5075017;28;19932;-63
2021/01/13 11:58:02;;;;;;;;;;;12.90;99.90;;;12.65;41.32;102179.88;5075331;28;19947;-62
2021/01/13 12:00:29;;;;;;;;;;;13.00;99.90;;;12.70;37.20;102171.75;5075278;28;19928;-64
2021/01/13 12:02:58;;;;;;;;;;;13.10;99.90;;;12.67;38.43;102169.59;5075471;28;19978;-65
2021/01/13 12:05:30;;;;;;;;;;;13.10;99.90;;;12.69;39.38;102162.81;5074781;28;19924;-63
2021/01/13 12:08:02;;;;;;;;;;;13.00;99.90;;;12.75;39.68;102156.28;5075016;28;19924;-62
2021/01/13 12:10:34;;;;;;;;;;;13.10;99.90;;;12.79;41.04;102149.25;5075326;28;19925;-63
2021/01/13 12:13:16;;;;;;;;;;;13.10;99.90;;;12.74;39.06;102148.41;5075194;28;19925;-62
2021/01/13 12:15:48;;;;;;;;;;;13.10;99.90;;;12.75;39.98;102131.03;5074703;28;19978;-62
2021/01/13 12:18:19;;;;;;;;;;;13.10;99.90;;;12.75;37.49;102128.31;5074791;28;19931;-62
2021/01/13 12:20:46;;;;;;;;;;;13.20;99.90;;;12.74;38.45;102121.25;5075050;28;20015;-62
2021/01/13 12:23:22;;;;;;;;;;;13.10;99.90;;;12.78;40.32;102123.19;5075001;28;19932;-62
2021/01/13 12:25:51;;;;;;;;;;;13.10;99.90;;;12.84;39.73;102119.38;5074351;28;19925;-63
2021/01/13 12:28:18;;;;;;;;;;;13.20;99.90;;;12.85;39.25;102118.28;5074335;28;19925;-65
2021/01/13 12:30:58;;;;;;;;;;;13.20;99.90;;;12.82;37.98;102104.44;5075110;28;19929;-63
2021/01/13 12:33:25;;;;;;;;;;;13.20;99.90;;;12.84;38.27;102110.41;5074680;28;19932;-63
2021/01/13 12:35:52;;;;;;;;;;;13.30;99.90;;;12.91;38.75;102102.81;5074225;28;19924;-63
2021/01/13 12:38:36;;;;;;;;;;;13.30;99.90;;;13.00;38.67;102104.69;5074450;28;19924;-63
2021/01/13 12:41:05;;;;;;;;;;;13.30;99.90;;;13.08;40.46;102089.75;5075003;28;19932;-62
2021/01/13 12:43:35;;;;;;;;;;;13.40;99.90;;;13.16;38.16;102088.38;5074456;28;19925;-64
2021/01/13 12:46:02;;;;;;;;;;;13.50;99.90;;;13.17;40.11;102088.09;5073800;28;19924;-64
2021/01/13 12:48:29;;;;;;;;;;;13.50;99.90;;;13.23;40.07;102083.47;5074499;28;19924;-64
2021/01/13 12:50:57;;;;;;;;;;;13.60;99.90;;;13.20;38.34;102076.69;5074530;28;19977;-63
2021/01/13 12:53:24;;;;;;;;;;;13.60;99.90;;;13.17;38.90;102079.94;5074416;28;20341;-63
2021/01/13 12:55:51;;;;;;;;;;;13.60;99.90;;;13.16;39.77;102074.81;5072866;28;19978;-63
2021/01/13 12:58:19;;;;;;;;;;;13.60;99.90;;;13.06;38.00;102075.63;5074170;28;19928;-62
2021/01/13 13:00:46;;;;;;;;;;;13.50;99.90;;;13.04;39.73;102067.72;5074373;28;19931;-62
2021/01/13 13:03:14;;;;;;;;;;;13.50;99.90;;;13.07;40.48;102061.75;5073990;28;19925;-62
2021/01/13 13:05:41;;;;;;;;;;;13.50;99.90;;;13.14;40.20;102065.03;5073568;28;19924;-63
2021/01/13 13:08:08;;;;;;;;;;;13.50;99.90;;;13.19;39.71;102057.97;5073854;28;19935;-64
2021/01/13 13:10:35;;;;;;;;;;;13.60;99.90;;;13.20;41.07;102051.41;5074263;28;19936;-62
2021/01/13 13:13:03;;;;;;;;;;;13.60;99.90;;;13.23;40.23;102053.59;5074016;28;19924;-62
2021/01/13 13:15:31;;;;;;;;;;;13.60;99.90;;;13.29;40.25;102047.03;5073525;28;19928;-62
2021/01/13 13:17:58;;;;;;;;;;;13.70;99.90;;;13.31;40.13;102040.25;5073671;28;19979;-63
2021/01/13 13:20:25;;;;;;;;;;;13.80;99.90;;;13.32;40.79;102049.19;5073918;28;19994;-63
2021/01/13 13:22:52;;;;;;;;;;;13.70;99.90;;;13.33;42.17;102048.94;5073326;28;19924;-63
2021/01/13 13:25:19;;;;;;;;;;;13.80;99.90;;;13.43;41.78;102048.91;5073260;28;19924;-63
2021/01/13 13:27:47;;;;;;;;;;;13.90;99.90;;;13.41;41.40;102045.63;5073397;28;19924;-62
2021/01/13 13:30:14;;;;;;;;;;;13.90;99.90;;;13.49;40.60;102036.09;5073892;28;19931;-63
2021/01/13 13:32:43;;;;;;;;;;;14.00;99.90;;;13.51;41.50;102050.22;5073782;28;19931;-63
2021/01/13 13:35:11;;;;;;;;;;;14.00;99.90;;;13.52;41.08;102040.97;5073057;28;19933;-65
2021/01/13 13:37:38;;;;;;;;;;;14.00;99.90;;;13.56;42.03;102039.31;5073190;28;19924;-63
2021/01/13 13:40:07;;;;;;;;;;;14.00;99.90;;;13.60;42.02;102034.94;5073687;28;20394;-63
2021/01/13 13:42:35;;;;;;;;;;;14.10;99.90;;;13.58;42.16;102035.25;5073480;28;19925;-63
2021/01/13 13:45:02;;;;;;;;;;;14.10;99.90;;;13.63;41.31;102026.22;5072685;28;19924;-62
2021/01/13 13:47:29;;;;;;;;;;;14.10;99.90;;;13.62;42.63;102025.41;5073097;28;19925;-62
2021/01/13 13:49:58;;;;;;;;;;;14.10;99.90;;;13.68;41.40;102021.56;5073347;28;19925;-62
2021/01/13 13:52:25;;;;;;;;;;;14.10;99.90;;;13.56;42.15;102023.00;5073344;28;19929;-63
2021/01/13 13:54:53;;;;;;;;;;;14.00;99.90;;;13.59;42.43;102020.53;5072974;28;19928;-63
2021/01/13 13:57:20;;;;;;;;;;;14.00;99.90;;;13.57;46.56;102021.91;5072561;28;20299;-63
2021/01/13 13:59:47;;;;;;;;;;;14.00;99.90;;;13.34;47.46;102025.31;5073347;28;20378;-62
2021/01/13 14:02:14;;;;;;;;;;;13.90;99.90;;;13.22;48.66;102022.09;5073235;28;20505;-62
2021/01/13 14:04:42;;;;;;;;;;;13.70;99.90;;;13.24;49.40;102019.91;5072589;28;19932;-63
2021/01/13 14:07:10;;;;;;;;;;;13.70;99.90;;;13.13;49.61;102022.66;5072254;28;20012;-64
2021/01/13 14:09:37;;;;;;;;;;;13.70;99.90;;;13.01;48.84;102024.06;5072920;28;19970;-63
2021/01/13 14:12:05;;;;;;;;;;;13.50;99.90;;;12.82;48.75;102021.13;5073219;28;19969;-62
2021/01/13 14:14:32;;;;;;;;;;;13.40;99.90;;;12.70;49.66;102023.31;5071995;28;19931;-63
2021/01/13 14:16:59;;;;;;;;;;;13.20;99.90;;;12.71;49.40;102032.25;5072137;28;20268;-63
2021/01/13 14:19:26;;;;;;;;;;;13.20;99.90;;;12.74;49.65;102031.69;5072825;28;20398;-63
2021/01/13 14:21:56;;;;;;;;;;;13.20;99.90;;;12.77;51.56;102023.81;5072785;28;20329;-62
2021/01/13 14:24:24;;;;;;;;;;;13.30;99.90;;;12.76;49.09;102030.34;5072351;28;19931;-64
2021/01/13 14:26:51;;;;;;;;;;;13.30;99.90;;;12.77;49.56;102034.69;5071744;28;20367;-65
2021/01/13 14:29:19;;;;;;;;;;;13.20;99.90;;;12.86;51.25;102037.63;5072022;28;19978;-63
2021/01/13 14:31:46;;;;;;;;;;;13.30;99.90;;;12.82;50.65;102031.97;5072782;28;20073;-63
2021/01/13 14:34:13;;;;;;;;;;;13.30;99.90;;;12.79;50.10;102032.53;5072302;28;19943;-63
2021/01/13 14:36:40;;;;;;;;;;;13.30;99.90;;;12.81;50.10;102032.22;5071330;28;20018;-63
2021/01/13 14:39:07;;;;;;;;;;;13.20;99.90;;;12.79;49.86;102024.38;5072669;28;19978;-63
2021/01/13 14:41:35;;;;;;;;;;;13.20;99.90;;;12.83;50.61;102030.88;5072453;28;19925;-63
2021/01/13 14:44:03;;;;;;;;;;;13.30;99.90;;;12.79;51.48;102024.38;5072240;28;20399;-63
2021/01/13 14:46:30;;;;;;;;;;;13.30;99.90;;;12.78;52.04;102027.34;5071493;28;19950;-63
2021/01/13 14:48:57;;;;;;;;;;;13.20;99.90;;;12.85;49.96;102027.88;5072400;28;19928;-63
2021/01/13 14:51:25;;;;;;;;;;;13.30;99.90;;;12.80;50.64;102022.44;5072260;28;19925;-63
2021/01/13 14:53:52;;;;;;;;;;;13.30;99.90;;;12.77;51.84;102033.84;5071877;28;19928;-62
2021/01/13 14:56:20;;;;;;;;;;;13.30;99.90;;;12.74;51.11;102035.22;5071642;28;19968;-62
2021/01/13 14:58:48;;;;;;;;;;;13.20;99.90;;;12.74;50.98;102029.81;5072345;28;19924;-62
2021/01/13 15:01:15;;;;;;;;;;;13.20;99.90;;;12.70;51.52;102036.88;5072409;28;19931;-62
2021/01/13 15:03:42;;;;;;;;;;;13.20;99.90;;;12.76;51.36;102034.97;5071225;28;19995;-62
2021/01/13 15:06:15;;;;;;;;;;;13.20;99.90;;;12.81;50.33;102033.06;5071418;28;19982;-63
2021/01/13 15:08:42;;;;;;;;;;;13.30;99.90;;;12.72;49.48;102029.28;5071829;28;20022;-62
2021/01/13 15:11:09;;;;;;;;;;;13.20;99.90;;;12.78;50.49;102030.88;5072205;28;19929;-62
2021/01/13 15:13:37;;;;;;;;;;;13.20;99.90;;;12.80;50.33;102033.31;5071764;28;19924;-61
2021/01/13 15:16:05;;;;;;;;;;;13.20;99.90;;;12.83;50.91;102033.56;5071587;28;19928;-65
2021/01/13 15:18:33;;;;;;;;;;;13.20;99.90;;;12.73;51.13;102046.38;5071681;28;19925;-65
2021/01/13 15:21:00;;;;;;;;;;;13.20;99.90;;;12.65;51.26;102045.00;5071889;28;19924;-64
2021/01/13 15:23:28;;;;;;;;;;;13.10;99.90;;;12.58;51.60;102047.22;5071885;28;19935;-62
2021/01/13 15:25:55;;;;;;;;;;;13.10;99.90;;;12.64;52.18;102042.59;5071445;28;20398;-65
2021/01/13 15:28:23;;;;;;;;;;;13.10;99.90;;;12.52;51.47;102038.25;5071726;28;19924;-62
2021/01/13 15:30:50;;;;;;;;;;;13.00;99.90;;;12.48;52.65;102041.78;5071914;28;19978;-63
2021/01/13 15:33:18;;;;;;;;;;;13.00;99.90;;;12.45;52.53;102042.34;5071881;28;20299;-62
2021/01/13 15:35:47;;;;;;;;;;;13.00;99.90;;;12.45;52.84;102045.03;5071069;28;19931;-62
2021/01/13 15:38:15;;;;;;;;;;;12.90;99.90;;;12.47;53.70;102046.41;5071492;28;19931;-63
2021/01/13 15:40:42;;;;;;;;;;;13.00;99.90;;;12.45;53.55;102037.72;5071945;28;19967;-63
2021/01/13 15:43:10;;;;;;;;;;;13.00;99.90;;;12.46;54.23;102043.97;5071758;28;19928;-63
2021/01/13 15:45:37;;;;;;;;;;;12.90;99.90;;;12.37;54.00;102042.88;5071074;28;20292;-63
2021/01/13 15:48:06;;;;;;;;;;;12.90;99.90;;;12.29;55.01;102036.09;5071466;28;19925;-63
2021/01/13 15:50:35;;;;;;;;;;;12.90;99.90;;;12.26;55.44;102038.53;5071707;28;19970;-63
2021/01/13 15:53:04;;;;;;;;;;;12.80;99.90;;;12.22;55.94;102046.38;5071699;28;19924;-63
2021/01/13 15:55:32;;;;;;;;;;;12.70;99.90;;;12.18;55.31;102048.03;5071274;28;20009;-63
2021/01/13 15:58:02;;;;;;;;;;;12.70;99.90;;;12.11;54.31;102046.66;5071136;28;19928;-63
2021/01/13 16:00:30;;;;;;;;;;;12.60;99.90;;;12.12;54.91;102046.41;5071663;28;19978;-63
2021/01/13 16:02:57;;;;;;;;;;;12.60;99.90;;;12.10;54.71;102048.56;5071286;28;19925;-63
2021/01/13 16:05:25;;;;;;;;;;;12.60;99.90;;;12.00;55.63;102046.66;5071269;28;20133;-63
2021/01/13 16:07:54;;;;;;;;;;;12.50;99.90;;;12.04;56.12;102038.78;5070965;28;19977;-63
2021/01/13 16:10:22;;;;;;;;;;;12.50;99.90;;;11.93;55.24;102054.25;5071393;28;19929;-63
2021/01/13 16:12:51;;;;;;;;;;;12.40;99.90;;;11.77;56.34;102049.88;5071682;28;19931;-63
2021/01/13 16:15:19;;;;;;;;;;;12.30;99.90;;;11.62;56.15;102052.50;5071117;28;19985;-63
2021/01/13 16:17:48;;;;;;;;;;;12.10;99.90;;;11.51;57.21;102056.28;5070736;28;19924;-63
2021/01/13 16:20:17;;;;;;;;;;;12.00;99.90;;;11.40;57.56;102060.00;5071434;28;19935;-62
2021/01/13 16:22:44;;;;;;;;;;;11.90;99.90;;;11.32;56.98;102061.34;5071441;28;19924;-62
2021/01/13 16:25:14;;;;;;;;;;;11.80;99.90;;;11.36;57.65;102061.63;5070734;28;19986;-64
2021/01/13 16:27:42;;;;;;;;;;;11.80;99.90;;;11.34;57.29;102058.34;5070808;28;19928;-64
2021/01/13 16:30:11;;;;;;;;;;;11.80;99.90;;;11.32;57.29;102063.22;5071902;28;19981;-62
2021/01/13 16:32:40;;;;;;;;;;;11.80;99.90;;;11.28;57.49;102059.41;5074777;28;19935;-62
2021/01/13 16:35:08;;;;;;;;;;;11.70;99.90;;;11.22;57.67;102074.00;5074471;28;19970;-62
2021/01/13 16:37:35;;;;;;;;;;;11.70;99.90;;;11.22;58.26;102068.59;5073959;28;19932;-62
2021/01/13 16:40:05;;;;;;;;;;;11.70;99.90;;;11.21;58.40;102072.41;5074914;28;19994;-62
2021/01/13 16:42:39;;;;;;;;;;;11.60;99.90;;;11.12;58.30;102065.84;5074833;28;19928;-63
2021/01/13 16:45:07;;;;;;;;;;;11.60;99.90;;;11.05;58.15;102066.09;5074337;28;19969;-62
2021/01/13 16:47:35;;;;;;;;;;;11.50;99.90;;;10.94;58.68;102064.41;5073905;28;20398;-62
2021/01/13 16:50:03;;;;;;;;;;;11.40;99.90;;;10.89;59.23;102073.28;5074419;28;20341;-62
2021/01/13 16:52:31;;;;;;;;;;;11.40;99.90;;;10.85;59.97;102066.75;5074377;28;20445;-63
2021/01/13 16:54:58;;;;;;;;;;;11.30;99.90;;;10.78;60.48;102059.97;5073896;28;19931;-63
2021/01/13 16:57:26;;;;;;;;;;;11.30;99.90;;;10.69;60.53;102069.66;5073769;28;19925;-63
2021/01/13 17:00:06;;;;;;;;;;;11.10;99.90;;;10.62;60.97;102066.34;5074541;28;19924;-63
2021/01/13 17:02:36;;;;;;;;;;;11.10;99.90;;;10.51;61.48;102068.16;5074369;28;19977;-63
2021/01/13 17:05:05;;;;;;;;;;;11.00;99.90;;;10.46;62.00;102064.63;5074175;28;19951;-63
2021/01/13 17:07:33;;;;;;;;;;;10.90;99.90;;;10.36;62.54;102065.34;5073398;28;19925;-63
2021/01/13 17:10:00;;;;;;;;;;;10.80;99.90;;;10.25;63.00;102059.03;5074328;28;20268;-64
2021/01/13 17:12:30;;;;;;;;;;;10.70;99.90;;;10.13;63.35;102065.63;5074334;28;19924;-62
2021/01/13 17:15:02;;;;;;;;;;;10.60;99.90;;;10.00;63.96;102063.38;5073955;28;19998;-62
2021/01/13 17:17:33;;;;;;;;;;;10.40;99.90;;;9.84;64.83;102060.50;5073265;28;19924;-62
2021/01/13 17:20:06;;;;;;;;;;;10.30;99.90;;;9.65;65.89;102067.31;5074172;28;19933;-62
2021/01/13 17:22:37;;;;;;;;;;;10.20;99.90;;;9.52;66.41;102061.47;5073904;28;19924;-63
2021/01/13 17:25:06;;;;;;;;;;;10.00;99.90;;;9.32;67.23;102068.28;5073859;28;19924;-63
2021/01/13 17:27:35;;;;;;;;;;;9.90;99.90;;;9.20;68.07;102073.00;5073094;28;19936;-62
2021/01/13 17:30:06;;;;;;;;;;;9.80;99.90;;;9.10;68.68;102070.16;5073957;28;19924;-62
2021/01/13 17:32:33;;;;;;;;;;;9.70;99.90;;;8.98;69.11;102066.75;5073837;28;19924;-63
2021/01/13 17:35:01;;;;;;;;;;;9.50;99.90;;;8.87;69.55;102069.53;5073657;28;20523;-63
2021/01/13 17:37:28;;;;;;;;;;;9.40;99.90;;;8.73;70.72;102071.75;5073022;28;19936;-63
2021/01/13 17:39:56;;;;;;;;;;;9.30;99.90;;;8.52;71.20;102076.03;5073598;28;20043;-62
2021/01/13 17:42:24;;;;;;;;;;;9.10;99.90;;;8.36;71.96;102079.53;5073028;28;19928;-62
2021/01/13 17:44:52;;;;;;;;;;;8.80;99.90;;;8.21;72.08;102079.22;5073357;28;19928;-62
2021/01/13 17:47:26;;;;;;;;;;;8.90;99.90;;;8.05;71.98;102082.75;5071009;28;19931;-62
2021/01/13 17:49:54;;;;;;;;;;;8.60;99.90;;;7.96;72.97;102086.88;5062123;28;20375;-63
2021/01/13 17:52:21;;;;;;;;;;;8.50;99.90;;;7.82;73.24;102094.44;5073437;28;19924;-63
2021/01/13 17:54:49;;;;;;;;;;;8.40;99.90;;;7.64;73.96;102094.59;5073001;28;19982;-62
2021/01/13 17:57:17;;;;;;;;;;;8.10;99.90;;;7.47;74.49;102108.00;5072215;28;20375;-63
2021/01/13 17:59:45;;;;;;;;;;;8.00;99.90;;;7.28;75.28;102097.63;5073371;28;20372;-63
2021/01/13 18:02:15;;;;;;;;;;;7.80;99.90;;;7.23;76.30;102102.91;5073390;28;20023;-63
2021/01/13 18:04:45;;;;;;;;;;;7.80;99.90;;;7.21;76.79;102108.50;5073316;28;20307;-62
2021/01/13 18:07:13;;;;;;;;;;;7.80;99.90;;;7.11;76.96;102111.00;5071988;28;19928;-63
2021/01/13 18:09:40;;;;;;;;;;;7.70;99.90;;;6.92;77.00;102104.94;5072951;28;20379;-63
2021/01/13 18:12:08;;;;;;;;;;;7.50;99.90;;;6.90;78.24;102111.59;5073238;28;20432;-63
2021/01/13 18:14:36;;;;;;;;;;;7.50;99.90;;;6.91;77.87;102111.34;5072975;28;20383;-63
2021/01/13 18:17:03;;;;;;;;;;;7.50;99.90;;;6.84;77.30;102117.91;5072091;28;19928;-63
2021/01/13 18:19:30;;;;;;;;;;;7.40;99.90;;;6.70;77.78;102117.28;5072781;28;19928;-63
2021/01/13 18:21:59;;;;;;;;;;;7.20;99.90;;;6.65;79.10;102119.03;5073035;28;19951;-63
2021/01/13 18:24:26;;;;;;;;;;;7.20;99.90;;;6.65;79.54;102117.19;5072558;28;19925;-62
2021/01/13 18:26:53;;;;;;;;;;;7.10;99.90;;;6.67;79.54;102125.00;5071351;28;20345;-63
2021/01/13 18:29:21;;;;;;;;;;;7.10;99.90;;;6.72;79.97;102119.75;5072699;28;20398;-63
2021/01/13 18:31:48;;;;;;;;;;;7.20;99.90;;;6.71;79.51;102128.88;5072691;28;20417;-63
2021/01/13 18:34:17;;;;;;;;;;;7.20;99.90;;;6.64;79.28;102126.28;5072625;28;20291;-63
2021/01/13 18:36:44;;;;;;;;;;;7.10;99.90;;;6.57;79.72;102129.06;5071845;28;19932;-62
2021/01/13 18:39:12;;;;;;;;;;;7.10;99.90;;;6.51;80.34;102132.69;5072382;28;19935;-62
2021/01/13 18:41:44;;;;;;;;;;;7.00;99.90;;;6.44;80.13;102123.09;5071860;28;19978;-62
2021/01/13 18:44:12;;;;;;;;;;;;;;;6.47;82.51;102118.09;5071945;28;20350;-62
2021/01/13 18:46:40;;;;;;;;;;;7.00;99.90;;;6.50;81.20;102122.19;5071502;28;19924;-63
2021/01/13 18:49:07;;;;;;;;;;;7.00;99.90;;;6.48;81.91;102125.09;5072235;28;20396;-62
2021/01/13 18:51:35;;;;;;;;;;;7.00;99.90;;;6.46;82.61;102127.19;5072369;28;20446;-63
2021/01/13 18:54:03;;;;;;;;;;;7.00;99.90;;;6.47;81.27;102117.28;5071349;28;20299;-62
2021/01/13 18:56:31;;;;;;;;;;;7.00;99.90;;;6.34;81.36;102120.97;5071194;28;19970;-63
2021/01/13 18:59:00;;;;;;;;;;;6.90;99.90;;;6.26;82.64;102121.28;5072163;28;19931;-62
2021/01/13 19:01:27;;;;;;;;;;;6.80;99.90;;;6.27;82.90;102116.75;5072082;28;19928;-63
2021/01/13 19:03:55;;;;;;;;;;;6.80;99.90;;;6.28;82.43;102124.59;5072105;28;19924;-63
2021/01/13 19:06:25;;;;;;;;;;;6.80;99.90;;;6.32;83.41;102120.38;5071308;28;19932;-63
2021/01/13 19:08:52;;;;;;;;;;;6.90;99.90;;;6.34;82.58;102131.72;5072039;28;19929;-63
2021/01/13 19:11:20;;;;;;;;;;;6.80;99.90;;;6.19;81.83;102125.97;5071859;28;19931;-63
2021/01/13 19:13:49;;;;;;;;;;;6.80;99.90;;;6.07;82.69;102121.59;5071847;28;19977;-63
2021/01/13 19:16:16;;;;;;;;;;;6.60;99.90;;;6.09;83.20;102127.53;5071266;28;19981;-63
2021/01/13 19:18:45;;;;;;;;;;;6.60;99.90;;;6.14;83.89;102123.13;5072005;28;20359;-63
2021/01/13 19:21:12;;;;;;;;;;;6.70;99.90;;;6.10;83.68;102116.59;5072071;28;19924;-63
2021/01/13 19:23:40;;;;;;;;;;;6.70;99.90;;;6.06;83.90;102120.75;5071811;28;19932;-63
2021/01/13 19:26:07;;;;;;;;;;;6.70;99.90;;;5.97;83.69;102124.81;5070983;28;19925;-63
2021/01/13 19:28:34;;;;;;;;;;;6.60;99.90;;;5.89;83.81;102122.47;5071698;28;19947;-63
2021/01/13 19:31:02;;;;;;;;;;;6.50;99.90;;;5.89;85.07;102127.81;5071995;28;19982;-63
2021/01/13 19:33:29;;;;;;;;;;;6.50;99.90;;;5.83;84.57;102126.03;5071662;28;19932;-63
2021/01/13 19:35:57;;;;;;;;;;;6.40;99.90;;;5.68;84.47;102125.59;5070970;28;19935;-63